createdAt,value
2023-02-24T00:00:38.815Z,6.05
2023-02-24T00:01:43.557Z,6.03
2023-02-24T00:02:47.261Z,5.60
2023-02-24T00:03:50.586Z,6.32
2023-02-24T00:04:53.812Z,5.70
2023-02-24T00:05:59.179Z,5.43
2023-02-24T00:07:03.240Z,5.78
2023-02-24T00:08:07.096Z,6.25
2023-02-24T00:09:12.295Z,5.82
2023-02-24T00:10:19.621Z,5.15
2023-02-24T00:11:22.924Z,5.32
2023-02-24T00:12:26.683Z,5.72
2023-02-24T00:13:30.634Z,5.50
2023-02-24T00:14:40.626Z,5.85
2023-02-24T00:15:43.845Z,5.90
2023-02-24T00:16:48.305Z,6.35
2023-02-24T00:17:51.591Z,6.22
2023-02-24T00:18:54.781Z,6.18
2023-02-24T00:19:57.924Z,6.03
2023-02-24T00:21:11.285Z,5.78
2023-02-24T00:22:14.384Z,6.28
2023-02-24T00:23:18.816Z,6.40
2023-02-24T00:24:28.631Z,6.30
2023-02-24T00:25:31.795Z,6.68
2023-02-24T00:26:34.940Z,6.07
2023-02-24T00:27:38.253Z,6.37
2023-02-24T00:28:42.617Z,6.97
2023-02-24T00:29:47.744Z,6.95
2023-02-24T00:30:50.895Z,6.78
2023-02-24T00:32:01.532Z,7.05
2023-02-24T00:33:04.793Z,6.62
2023-02-24T00:34:08.926Z,6.70
2023-02-24T00:35:14.666Z,6.78
2023-02-24T00:36:25.020Z,6.87
2023-02-24T00:37:30.179Z,7.35
2023-02-24T00:38:36.600Z,6.97
2023-02-24T00:39:42.065Z,7.45
2023-02-24T00:40:45.672Z,7.43
2023-02-24T00:41:48.863Z,6.87
2023-02-24T00:42:52.201Z,7.47
2023-02-24T00:43:58.167Z,7.10
2023-02-24T00:45:07.671Z,7.22
2023-02-24T00:46:14.000Z,6.45
2023-02-24T00:47:18.052Z,7.43
2023-02-24T00:48:21.322Z,7.05
2023-02-24T00:49:24.843Z,7.22
2023-02-24T00:50:28.353Z,6.93
2023-02-24T00:51:36.244Z,7.00
2023-02-24T00:52:39.370Z,6.82
2023-02-24T00:53:43.336Z,7.20
2023-02-24T00:54:48.314Z,7.78
2023-02-24T00:56:00.056Z,6.53
2023-02-24T00:57:03.430Z,6.55
2023-02-24T00:58:07.718Z,6.85
2023-02-24T00:59:13.762Z,5.72
2023-02-24T01:00:17.896Z,6.70
2023-02-24T01:01:23.948Z,7.12
2023-02-24T01:02:27.240Z,6.53
2023-02-24T01:03:32.254Z,6.30
2023-02-24T01:04:37.984Z,6.85
2023-02-24T01:05:41.363Z,7.07
2023-02-24T01:06:48.498Z,7.47
2023-02-24T01:07:52.374Z,7.28
2023-02-24T01:08:57.493Z,7.35
2023-02-24T01:10:01.496Z,7.45
2023-02-24T01:11:23.503Z,7.30
2023-02-24T01:12:39.177Z,8.07
2023-02-24T01:13:42.248Z,8.10
2023-02-24T01:14:49.808Z,7.40
2023-02-24T01:16:02.537Z,6.78
2023-02-24T01:17:08.268Z,8.40
2023-02-24T01:18:11.617Z,8.27
2023-02-24T01:19:14.871Z,8.07
2023-02-24T01:20:19.281Z,7.55
2023-02-24T01:21:22.722Z,8.10
2023-02-24T01:22:26.398Z,8.80
2023-02-24T01:23:29.559Z,8.60
2023-02-24T01:24:36.230Z,8.82
2023-02-24T01:25:39.661Z,9.40
2023-02-24T01:26:43.444Z,8.57
2023-02-24T01:27:46.867Z,9.60
2023-02-24T01:28:50.232Z,9.05
2023-02-24T01:29:53.872Z,9.25
2023-02-24T01:31:05.734Z,9.02
2023-02-24T01:32:21.204Z,8.82
2023-02-24T01:33:24.679Z,8.93
2023-02-24T01:34:28.871Z,9.73
2023-02-24T01:35:34.884Z,9.57
2023-02-24T01:36:40.744Z,9.93
2023-02-24T01:37:43.839Z,11.70
2023-02-24T01:38:49.511Z,12.60
2023-02-24T01:39:52.593Z,13.10
2023-02-24T01:40:57.636Z,12.45
2023-02-24T01:42:02.000Z,12.10
2023-02-24T01:43:09.196Z,11.32
2023-02-24T01:44:17.521Z,11.60
2023-02-24T01:45:25.236Z,9.82
2023-02-24T01:46:37.870Z,9.50
2023-02-24T01:47:42.244Z,7.72
2023-02-24T01:48:45.627Z,7.95
2023-02-24T01:49:53.211Z,7.95
2023-02-24T01:50:56.651Z,7.37
2023-02-24T01:52:04.890Z,7.68
2023-02-24T01:53:08.889Z,7.93
2023-02-24T01:54:16.069Z,8.02
2023-02-24T01:55:24.947Z,9.07
2023-02-24T01:56:31.437Z,8.27
2023-02-24T01:57:38.934Z,8.15
2023-02-24T01:58:43.294Z,8.30
2023-02-24T01:59:52.098Z,8.50
2023-02-24T02:00:58.143Z,8.68
2023-02-24T02:02:05.526Z,8.05
2023-02-24T02:03:21.187Z,8.30
2023-02-24T02:04:36.967Z,7.40
2023-02-24T02:05:43.061Z,8.13
2023-02-24T02:06:48.481Z,7.95
2023-02-24T02:07:52.603Z,8.68
2023-02-24T02:08:56.286Z,8.43
2023-02-24T02:10:04.361Z,8.85
2023-02-24T02:11:11.181Z,8.27
2023-02-24T02:12:14.607Z,8.57
2023-02-24T02:13:21.530Z,8.65
2023-02-24T02:14:31.442Z,7.70
2023-02-24T02:16:03.962Z,8.25
2023-02-24T02:17:16.133Z,7.55
2023-02-24T02:18:38.814Z,7.65
2023-02-24T02:20:17.587Z,8.55
2023-02-24T02:21:23.557Z,8.57
2023-02-24T02:22:45.667Z,7.47
2023-02-24T02:24:10.792Z,7.55
2023-02-24T02:25:51.330Z,8.00
2023-02-24T02:27:34.023Z,8.15
2023-02-24T02:29:00.206Z,9.00
2023-02-24T02:30:32.372Z,8.00
2023-02-24T02:33:14.013Z,7.45
2023-02-24T02:34:28.019Z,7.25
2023-02-24T02:35:51.326Z,8.27
2023-02-24T02:37:00.961Z,7.82
2023-02-24T02:38:15.559Z,7.47
2023-02-24T02:39:41.327Z,7.18
2023-02-24T02:41:12.019Z,7.60
2023-02-24T02:42:28.464Z,8.43
2023-02-24T02:43:57.427Z,7.97
2023-02-24T02:45:14.802Z,7.97
2023-02-24T02:46:46.567Z,8.60
2023-02-24T02:48:15.938Z,7.53
2023-02-24T02:49:30.792Z,6.95
2023-02-24T02:50:36.628Z,7.75
2023-02-24T02:51:47.895Z,7.22
2023-02-24T02:53:39.419Z,7.95
2023-02-24T02:54:50.146Z,7.87
2023-02-24T02:56:00.966Z,8.03
2023-02-24T02:57:15.588Z,7.50
2023-02-24T02:58:26.666Z,8.85
2023-02-24T02:59:32.995Z,8.32
2023-02-24T03:00:43.118Z,8.32
2023-02-24T03:01:47.565Z,8.05
2023-02-24T03:02:59.365Z,8.10
2023-02-24T03:04:09.977Z,8.50
2023-02-24T03:05:17.939Z,8.98
2023-02-24T03:06:28.235Z,8.57
2023-02-24T03:07:37.901Z,9.27
2023-02-24T03:08:48.784Z,10.05
2023-02-24T03:09:58.763Z,8.40
2023-02-24T03:11:05.941Z,9.05
2023-02-24T03:12:18.532Z,9.68
2023-02-24T03:13:26.085Z,8.90
2023-02-24T03:14:37.878Z,9.80
2023-02-24T03:15:45.507Z,8.82
2023-02-24T03:16:50.698Z,9.52
2023-02-24T03:18:02.141Z,9.45
2023-02-24T03:19:09.289Z,9.52
2023-02-24T03:20:33.280Z,10.48
2023-02-24T03:21:52.383Z,9.57
2023-02-24T03:22:59.046Z,9.15
2023-02-24T03:24:06.284Z,9.85
2023-02-24T03:25:10.962Z,9.07
2023-02-24T03:26:22.343Z,9.77
2023-02-24T03:27:45.493Z,9.00
2023-02-24T03:29:18.898Z,10.02
2023-02-24T03:30:28.810Z,10.00
2023-02-24T03:31:46.834Z,9.48
2023-02-24T03:33:10.761Z,9.60
2023-02-24T03:34:24.495Z,9.20
2023-02-24T03:35:31.696Z,9.05
2023-02-24T03:36:35.206Z,9.50
2023-02-24T03:37:38.432Z,9.23
2023-02-24T03:38:43.235Z,9.82
2023-02-24T03:39:48.069Z,10.60
2023-02-24T03:40:52.373Z,10.32
2023-02-24T03:41:58.175Z,10.75
2023-02-24T03:43:11.898Z,9.98
2023-02-24T03:44:15.162Z,9.80
2023-02-24T03:45:19.732Z,9.50
2023-02-24T03:46:23.141Z,9.63
2023-02-24T03:47:27.224Z,9.50
2023-02-24T03:48:30.862Z,8.88
2023-02-24T03:49:38.122Z,9.00
2023-02-24T03:50:43.062Z,10.15
2023-02-24T03:52:09.066Z,10.02
2023-02-24T03:53:24.363Z,9.85
2023-02-24T03:55:01.440Z,9.85
2023-02-24T03:56:22.993Z,9.63
2023-02-24T03:57:35.006Z,10.00
2023-02-24T03:58:49.666Z,10.40
2023-02-24T04:00:23.137Z,10.60
2023-02-24T04:01:42.357Z,10.30
2023-02-24T04:02:49.216Z,9.55
2023-02-24T04:04:12.405Z,9.13
2023-02-24T04:05:24.652Z,9.38
2023-02-24T04:07:13.117Z,10.23
2023-02-24T04:08:20.795Z,9.68
2023-02-24T04:09:34.106Z,9.55
2023-02-24T04:10:53.034Z,10.30
2023-02-24T04:12:21.337Z,9.68
2023-02-24T04:13:46.040Z,9.20
2023-02-24T04:14:57.626Z,9.75
2023-02-24T04:17:31.517Z,9.73
2023-02-24T04:18:35.787Z,9.07
2023-02-24T04:19:43.549Z,9.73
2023-02-24T04:20:53.536Z,10.75
2023-02-24T04:21:57.798Z,10.63
2023-02-24T04:23:10.921Z,9.90
2023-02-24T04:24:18.597Z,10.48
2023-02-24T04:25:25.251Z,9.48
2023-02-24T04:26:29.954Z,10.50
2023-02-24T04:27:34.285Z,10.93
2023-02-24T04:28:38.661Z,11.12
2023-02-24T04:29:50.284Z,10.85
2023-02-24T04:30:58.343Z,10.75
2023-02-24T04:32:09.032Z,10.15
2023-02-24T04:33:13.321Z,10.03
2023-02-24T04:34:20.390Z,10.07
2023-02-24T04:35:27.034Z,10.60
2023-02-24T04:36:30.348Z,11.27
2023-02-24T04:37:37.558Z,10.65
2023-02-24T04:38:40.800Z,11.25
2023-02-24T04:39:45.079Z,10.18
2023-02-24T04:40:50.257Z,10.68
2023-02-24T04:41:53.378Z,10.32
2023-02-24T04:42:56.717Z,10.70
2023-02-24T04:44:02.036Z,10.60
2023-02-24T04:45:10.555Z,10.50
2023-02-24T04:46:13.722Z,10.40
2023-02-24T04:47:17.142Z,11.38
2023-02-24T04:48:20.843Z,11.77
2023-02-24T04:49:23.975Z,10.95
2023-02-24T04:50:31.427Z,10.60
2023-02-24T04:51:34.668Z,11.90
2023-02-24T04:52:39.201Z,10.38
2023-02-24T04:53:42.661Z,10.23
2023-02-24T04:54:45.871Z,11.15
2023-02-24T04:55:49.270Z,9.77
2023-02-24T04:56:53.190Z,11.05
2023-02-24T04:57:57.641Z,10.95
2023-02-24T04:59:00.840Z,10.35
2023-02-24T05:00:21.101Z,10.98
2023-02-24T05:01:24.230Z,10.00
2023-02-24T05:02:27.650Z,10.77
2023-02-24T05:03:30.847Z,11.35
2023-02-24T05:04:39.147Z,9.55
2023-02-24T05:05:52.229Z,10.95
2023-02-24T05:06:57.744Z,11.07
2023-02-24T05:08:07.310Z,10.43
2023-02-24T05:09:17.329Z,9.88
2023-02-24T05:10:21.076Z,10.65
2023-02-24T05:11:24.350Z,10.52
2023-02-24T05:12:29.756Z,9.80
2023-02-24T05:13:34.043Z,10.95
2023-02-24T05:14:39.714Z,11.32
2023-02-24T05:15:45.028Z,11.05
2023-02-24T05:16:50.401Z,11.12
2023-02-24T05:17:53.931Z,11.32
2023-02-24T05:19:15.714Z,10.98
2023-02-24T05:20:37.749Z,11.10
2023-02-24T05:21:42.082Z,11.27
2023-02-24T05:22:45.427Z,10.48
2023-02-24T05:23:52.082Z,10.68
2023-02-24T05:24:57.550Z,10.57
2023-02-24T05:26:09.223Z,10.70
2023-02-24T05:28:15.862Z,10.65
2023-02-24T05:29:19.169Z,10.63
2023-02-24T05:30:26.365Z,10.77
2023-02-24T05:31:31.458Z,11.52
2023-02-24T05:32:34.962Z,10.75
2023-02-24T05:33:39.790Z,10.80
2023-02-24T05:34:43.063Z,10.85
2023-02-24T05:35:46.117Z,10.73
2023-02-24T05:36:49.448Z,10.43
2023-02-24T05:37:52.699Z,10.25
2023-02-24T05:39:07.171Z,9.98
2023-02-24T05:40:13.766Z,10.98
2023-02-24T05:41:19.052Z,11.23
2023-02-24T05:42:22.452Z,11.45
2023-02-24T05:43:26.565Z,10.65
2023-02-24T05:44:32.066Z,11.48
2023-02-24T05:45:35.339Z,11.02
2023-02-24T05:46:41.262Z,9.90
2023-02-24T05:47:47.660Z,12.43
2023-02-24T05:48:51.528Z,11.52
2023-02-24T05:49:57.362Z,12.30
2023-02-24T05:51:02.825Z,11.73
2023-02-24T05:52:09.769Z,11.98
2023-02-24T05:53:13.979Z,11.57
2023-02-24T05:54:17.815Z,11.38
2023-02-24T05:55:23.294Z,12.37
2023-02-24T05:56:27.676Z,11.82
2023-02-24T05:57:35.650Z,11.40
2023-02-24T05:58:39.635Z,11.50
2023-02-24T05:59:44.986Z,11.10
2023-02-24T06:00:48.394Z,10.88
2023-02-24T06:01:54.216Z,11.88
2023-02-24T06:03:08.614Z,11.25
2023-02-24T06:04:21.179Z,11.10
2023-02-24T06:05:27.722Z,11.18
2023-02-24T06:06:30.789Z,11.15
2023-02-24T06:07:36.823Z,11.40
2023-02-24T06:08:42.834Z,11.05
2023-02-24T06:09:50.528Z,11.20
2023-02-24T06:10:54.070Z,11.55
2023-02-24T06:11:57.366Z,11.20
2023-02-24T06:13:02.621Z,10.77
2023-02-24T06:14:08.663Z,12.07
2023-02-24T06:15:11.866Z,10.98
2023-02-24T06:16:17.255Z,10.98
2023-02-24T06:17:21.711Z,12.23
2023-02-24T06:18:25.206Z,11.30
2023-02-24T06:19:32.307Z,11.63
2023-02-24T06:20:35.589Z,12.32
2023-02-24T06:21:44.240Z,12.13
2023-02-24T06:22:47.265Z,11.98
2023-02-24T06:23:50.424Z,10.70
2023-02-24T06:24:54.960Z,11.27
2023-02-24T06:26:02.989Z,11.80
2023-02-24T06:27:18.037Z,11.25
2023-02-24T06:28:21.570Z,11.55
2023-02-24T06:29:29.790Z,11.23
2023-02-24T06:30:33.145Z,11.38
2023-02-24T06:31:36.245Z,11.88
2023-02-24T06:32:39.678Z,12.07
2023-02-24T06:33:43.028Z,12.15
2023-02-24T06:34:46.191Z,11.20
2023-02-24T06:35:49.389Z,11.70
2023-02-24T06:36:53.078Z,10.75
2023-02-24T06:37:56.300Z,11.35
2023-02-24T06:38:59.386Z,11.35
2023-02-24T06:40:02.695Z,11.35
2023-02-24T06:41:11.311Z,11.02
2023-02-24T06:42:15.634Z,10.52
2023-02-24T06:43:19.682Z,12.35
2023-02-24T06:44:24.753Z,11.07
2023-02-24T06:45:28.980Z,11.27
2023-02-24T06:46:32.170Z,11.43
2023-02-24T06:47:35.691Z,11.85
2023-02-24T06:48:39.054Z,10.90
2023-02-24T06:49:45.222Z,11.63
2023-02-24T06:50:50.335Z,12.00
2023-02-24T06:51:55.031Z,11.90
2023-02-24T06:53:01.194Z,12.07
2023-02-24T06:54:06.787Z,11.55
2023-02-24T06:55:25.791Z,11.48
2023-02-24T06:56:31.405Z,11.15
2023-02-24T06:57:35.736Z,11.35
2023-02-24T06:58:39.471Z,11.45
2023-02-24T06:59:42.920Z,11.93
2023-02-24T07:00:59.725Z,12.57
2023-02-24T07:02:03.675Z,12.15
2023-02-24T07:03:15.419Z,12.43
2023-02-24T07:05:24.509Z,12.68
2023-02-24T07:06:29.943Z,12.82
2023-02-24T07:07:33.587Z,11.70
2023-02-24T07:08:38.450Z,11.35
2023-02-24T07:09:45.753Z,11.65
2023-02-24T07:11:00.149Z,11.93
2023-02-24T07:12:04.946Z,12.63
2023-02-24T07:13:08.315Z,12.75
2023-02-24T07:14:13.505Z,12.15
2023-02-24T07:15:18.186Z,12.43
2023-02-24T07:16:26.118Z,11.23
2023-02-24T07:17:29.431Z,11.77
2023-02-24T07:18:36.650Z,11.90
2023-02-24T07:19:40.051Z,12.18
2023-02-24T07:20:46.875Z,12.30
2023-02-24T07:21:52.873Z,11.38
2023-02-24T07:22:56.466Z,11.55
2023-02-24T07:23:59.896Z,11.75
2023-02-24T07:25:03.680Z,11.70
2023-02-24T07:26:10.746Z,11.95
2023-02-24T07:27:22.761Z,11.18
2023-02-24T07:28:26.122Z,12.48
2023-02-24T07:29:32.750Z,11.73
2023-02-24T07:30:37.386Z,11.88
2023-02-24T07:31:42.853Z,11.20
2023-02-24T07:32:49.043Z,11.75
2023-02-24T07:34:02.426Z,12.13
2023-02-24T07:35:05.894Z,12.70
2023-02-24T07:36:09.274Z,12.43
2023-02-24T07:37:12.666Z,11.80
2023-02-24T07:38:17.620Z,11.60
2023-02-24T07:39:23.395Z,12.07
2023-02-24T07:40:26.403Z,12.27
2023-02-24T07:41:31.367Z,12.60
2023-02-24T07:42:35.657Z,13.52
2023-02-24T07:43:40.042Z,12.68
2023-02-24T07:44:44.811Z,13.80
2023-02-24T07:45:47.890Z,15.45
2023-02-24T07:46:51.455Z,13.20
2023-02-24T07:47:54.436Z,15.38
2023-02-24T07:49:00.381Z,18.58
2023-02-24T07:50:10.942Z,14.82
2023-02-24T07:51:17.470Z,12.68
2023-02-24T07:52:20.636Z,13.90
2023-02-24T07:53:23.852Z,13.48
2023-02-24T07:54:30.511Z,13.50
2023-02-24T07:55:36.515Z,12.90
2023-02-24T07:56:46.536Z,15.88
2023-02-24T07:57:49.765Z,15.48
2023-02-24T07:58:59.733Z,11.98
2023-02-24T08:00:17.382Z,12.25
2023-02-24T08:01:23.518Z,11.73
2023-02-24T08:02:27.135Z,11.35
2023-02-24T08:03:30.617Z,11.70
2023-02-24T08:04:36.620Z,12.07
2023-02-24T08:05:39.919Z,12.27
2023-02-24T08:06:46.852Z,12.57
2023-02-24T08:07:52.169Z,12.00
2023-02-24T08:09:01.904Z,12.13
2023-02-24T08:10:14.736Z,13.20
2023-02-24T08:11:17.986Z,12.55
2023-02-24T08:12:22.912Z,12.65
2023-02-24T08:13:26.115Z,12.90
2023-02-24T08:14:44.766Z,12.52
2023-02-24T08:15:56.983Z,12.20
2023-02-24T08:17:00.362Z,11.80
2023-02-24T08:18:03.612Z,11.75
2023-02-24T08:19:08.261Z,13.20
2023-02-24T08:20:15.634Z,11.85
2023-02-24T08:21:20.078Z,11.93
2023-02-24T08:22:28.192Z,12.15
2023-02-24T08:23:34.826Z,12.48
2023-02-24T08:24:38.145Z,12.15
2023-02-24T08:25:44.858Z,12.80
2023-02-24T08:27:04.769Z,12.80
2023-02-24T08:28:11.998Z,12.23
2023-02-24T08:29:15.193Z,12.00
2023-02-24T08:30:30.418Z,12.57
2023-02-24T08:31:41.284Z,12.40
2023-02-24T08:32:45.252Z,12.98
2023-02-24T08:33:48.315Z,12.55
2023-02-24T08:34:57.086Z,12.50
2023-02-24T08:36:03.031Z,13.70
2023-02-24T08:37:06.509Z,12.30
2023-02-24T08:38:16.795Z,12.27
2023-02-24T08:39:19.820Z,12.63
2023-02-24T08:40:34.367Z,13.02
2023-02-24T08:41:51.594Z,13.15
2023-02-24T08:42:54.790Z,12.02
2023-02-24T08:43:58.013Z,12.15
2023-02-24T08:45:02.354Z,13.05
2023-02-24T08:46:26.989Z,12.75
2023-02-24T08:47:36.318Z,13.27
2023-02-24T08:48:44.293Z,13.90
2023-02-24T08:49:49.839Z,12.90
2023-02-24T08:50:55.178Z,12.48
2023-02-24T08:52:02.570Z,11.32
2023-02-24T08:53:05.728Z,12.23
2023-02-24T08:54:15.680Z,12.63
2023-02-24T08:55:23.462Z,13.13
2023-02-24T08:56:35.199Z,13.05
2023-02-24T08:57:38.562Z,13.18
2023-02-24T08:58:47.702Z,12.90
2023-02-24T08:59:51.381Z,12.93
2023-02-24T09:00:59.723Z,13.45
2023-02-24T09:02:21.968Z,12.63
2023-02-24T09:03:29.859Z,13.20
2023-02-24T09:04:34.989Z,13.15
2023-02-24T09:05:39.411Z,13.88
2023-02-24T09:06:53.829Z,13.45
2023-02-24T09:07:59.372Z,13.55
2023-02-24T09:09:17.955Z,13.13
2023-02-24T09:10:21.445Z,12.57
2023-02-24T09:11:24.674Z,12.45
2023-02-24T09:12:30.023Z,12.07
2023-02-24T09:13:33.438Z,12.48
2023-02-24T09:14:37.770Z,12.55
2023-02-24T09:15:44.581Z,13.15
2023-02-24T09:17:03.368Z,12.90
2023-02-24T09:18:14.601Z,12.93
2023-02-24T09:19:36.226Z,12.60
2023-02-24T09:20:58.315Z,13.18
2023-02-24T09:22:21.786Z,13.25
2023-02-24T09:23:30.992Z,13.25
2023-02-24T09:24:34.246Z,13.45
2023-02-24T09:25:49.802Z,12.50
2023-02-24T09:26:59.437Z,12.63
2023-02-24T09:28:18.414Z,12.50
2023-02-24T09:29:41.823Z,12.32
2023-02-24T09:30:53.853Z,13.10
2023-02-24T09:32:04.854Z,13.07
2023-02-24T09:33:18.348Z,12.55
2023-02-24T09:34:30.376Z,12.37
2023-02-24T09:35:37.160Z,13.23
2023-02-24T09:36:45.592Z,13.13
2023-02-24T09:37:48.770Z,13.20
2023-02-24T09:39:00.870Z,13.38
2023-02-24T09:40:17.029Z,12.37
2023-02-24T09:41:32.906Z,13.40
2023-02-24T09:42:46.693Z,13.35
2023-02-24T09:43:56.679Z,13.15
2023-02-24T09:45:05.771Z,13.20
2023-02-24T09:46:15.066Z,13.73
2023-02-24T09:47:51.517Z,13.13
2023-02-24T09:49:24.517Z,12.25
2023-02-24T09:51:02.112Z,12.18
2023-02-24T09:52:19.208Z,12.60
2023-02-24T09:53:22.218Z,12.45
2023-02-24T09:54:25.526Z,13.88
2023-02-24T09:56:09.682Z,13.88
2023-02-24T09:57:20.399Z,13.77
2023-02-24T09:58:51.336Z,14.15
2023-02-24T10:00:25.651Z,13.70
2023-02-24T10:01:43.306Z,13.50
2023-02-24T10:03:00.599Z,14.55
2023-02-24T10:04:41.006Z,14.07
2023-02-24T10:05:59.323Z,14.02
2023-02-24T10:07:15.138Z,12.77
2023-02-24T10:08:27.093Z,13.93
2023-02-24T10:11:01.081Z,13.65
2023-02-24T10:12:18.854Z,13.57
2023-02-24T10:13:33.007Z,12.85
2023-02-24T10:14:53.549Z,13.15
2023-02-24T10:16:07.330Z,14.35
2023-02-24T10:17:23.234Z,14.13
2023-02-24T10:18:43.832Z,13.95
2023-02-24T10:19:56.709Z,13.90
2023-02-24T10:21:31.006Z,13.48
2023-02-24T10:23:00.422Z,13.82
2023-02-24T10:24:23.210Z,13.68
2023-02-24T10:25:40.641Z,12.80
2023-02-24T10:27:08.337Z,14.35
2023-02-24T10:28:46.336Z,12.93
2023-02-24T10:29:55.869Z,14.57
2023-02-24T10:31:35.900Z,13.52
2023-02-24T10:32:47.387Z,12.57
2023-02-24T10:34:57.043Z,13.05
2023-02-24T10:36:17.427Z,14.82
2023-02-24T10:37:29.083Z,13.68
2023-02-24T10:38:34.532Z,13.62
2023-02-24T10:39:42.868Z,13.77
2023-02-24T10:40:58.966Z,13.18
2023-02-24T10:42:18.111Z,13.55
2023-02-24T10:43:30.581Z,13.73
2023-02-24T10:44:39.759Z,12.88
2023-02-24T10:45:45.685Z,14.63
2023-02-24T10:47:11.911Z,13.95
2023-02-24T10:48:41.083Z,13.43
2023-02-24T10:49:58.102Z,13.55
2023-02-24T10:51:10.367Z,13.30
2023-02-24T10:52:33.721Z,13.38
2023-02-24T10:53:38.000Z,13.95
2023-02-24T10:55:05.854Z,14.68
2023-02-24T10:56:15.772Z,13.45
2023-02-24T10:57:19.105Z,13.25
2023-02-24T10:59:01.764Z,13.15
2023-02-24T11:00:31.331Z,13.68
2023-02-24T11:01:56.063Z,14.20
2023-02-24T11:03:08.800Z,13.68
2023-02-24T11:04:33.551Z,14.27
2023-02-24T11:06:18.009Z,14.07
2023-02-24T11:07:25.022Z,13.05
2023-02-24T11:08:54.860Z,14.02
2023-02-24T11:10:33.210Z,13.95
2023-02-24T11:11:57.314Z,13.27
2023-02-24T11:13:20.699Z,13.70
2023-02-24T11:14:42.678Z,14.00
2023-02-24T11:17:28.064Z,15.25
2023-02-24T11:18:32.332Z,14.07
2023-02-24T11:19:48.016Z,12.63
2023-02-24T11:20:55.897Z,15.02
2023-02-24T11:22:00.125Z,13.52
2023-02-24T11:23:10.228Z,15.32
2023-02-24T11:24:19.039Z,15.43
2023-02-24T11:25:27.544Z,14.82
2023-02-24T11:26:40.921Z,14.45
2023-02-24T11:27:46.767Z,13.62
2023-02-24T11:29:17.803Z,16.00
2023-02-24T11:30:26.708Z,14.68
2023-02-24T11:32:09.307Z,14.13
2023-02-24T11:33:42.817Z,14.13
2023-02-24T11:35:01.881Z,14.27
2023-02-24T11:36:40.103Z,13.90
2023-02-24T11:38:02.515Z,15.13
2023-02-24T11:39:23.896Z,13.90
2023-02-24T11:40:31.259Z,14.90
2023-02-24T11:41:41.350Z,15.10
2023-02-24T11:43:11.749Z,14.50
2023-02-24T11:44:36.416Z,15.00
2023-02-24T11:45:51.360Z,14.60
2023-02-24T11:47:02.996Z,15.35
2023-02-24T11:48:21.567Z,15.23
2023-02-24T11:49:31.313Z,13.85
2023-02-24T11:50:39.870Z,15.20
2023-02-24T11:51:45.047Z,15.15
2023-02-24T11:52:52.628Z,15.20
2023-02-24T11:54:11.601Z,14.75
2023-02-24T11:55:28.364Z,14.87
2023-02-24T11:56:38.686Z,14.60
2023-02-24T11:57:48.590Z,16.15
2023-02-24T11:59:04.104Z,15.77
2023-02-24T12:00:30.538Z,16.05
2023-02-24T12:01:44.724Z,15.23
2023-02-24T12:02:53.189Z,15.07
2023-02-24T12:04:21.082Z,15.98
2023-02-24T12:05:37.451Z,15.02
2023-02-24T12:06:57.207Z,16.60
2023-02-24T12:08:10.795Z,16.70
2023-02-24T12:09:19.959Z,16.85
2023-02-24T12:10:36.105Z,16.67
2023-02-24T12:11:55.870Z,16.58
2023-02-24T12:13:20.188Z,15.50
2023-02-24T12:14:35.435Z,16.60
2023-02-24T12:15:59.937Z,17.30
2023-02-24T12:17:23.538Z,16.45
2023-02-24T12:18:34.381Z,16.80
2023-02-24T12:19:58.419Z,17.65
2023-02-24T12:21:06.148Z,18.00
2023-02-24T12:22:15.633Z,17.12
2023-02-24T12:23:35.329Z,17.92
2023-02-24T12:24:42.462Z,16.48
2023-02-24T12:26:02.308Z,18.85
2023-02-24T12:27:19.034Z,16.27
2023-02-24T12:29:05.911Z,18.17
2023-02-24T12:30:34.467Z,17.12
2023-02-24T12:31:55.995Z,16.23
2023-02-24T12:33:15.850Z,17.05
2023-02-24T12:34:29.398Z,16.73
2023-02-24T12:35:48.618Z,16.23
2023-02-24T12:37:12.962Z,17.50
2023-02-24T12:38:43.688Z,17.40
2023-02-24T12:40:01.991Z,16.85
2023-02-24T12:41:30.378Z,17.23
2023-02-24T12:43:03.577Z,16.17
2023-02-24T12:44:29.964Z,16.85
2023-02-24T12:46:07.989Z,16.73
2023-02-24T12:47:17.799Z,17.33
2023-02-24T12:48:20.831Z,16.67
2023-02-24T12:49:55.651Z,16.90
2023-02-24T12:51:08.364Z,17.42
2023-02-24T12:52:25.066Z,17.40
2023-02-24T12:53:43.193Z,17.48
2023-02-24T12:55:04.523Z,17.73
2023-02-24T12:56:24.447Z,17.75
2023-02-24T12:57:45.790Z,16.98
2023-02-24T12:58:57.235Z,17.50
2023-02-24T13:01:41.191Z,17.20
2023-02-24T13:03:05.996Z,16.67
2023-02-24T13:04:30.152Z,17.60
2023-02-24T13:05:52.549Z,17.17
2023-02-24T13:08:10.375Z,16.35
2023-02-24T13:09:22.048Z,17.30
2023-02-24T13:10:33.938Z,16.92
2023-02-24T13:11:56.561Z,16.35
2023-02-24T13:13:06.335Z,16.20
2023-02-24T13:14:16.022Z,16.08
2023-02-24T13:15:27.257Z,16.25
2023-02-24T13:16:34.997Z,15.25
2023-02-24T13:17:49.354Z,17.08
2023-02-24T13:18:53.004Z,14.70
2023-02-24T13:19:56.872Z,16.20
2023-02-24T13:21:14.716Z,15.57
2023-02-24T13:22:48.754Z,14.82
2023-02-24T13:24:03.223Z,14.48
2023-02-24T13:25:09.606Z,14.52
2023-02-24T13:26:12.725Z,14.23
2023-02-24T13:27:21.353Z,14.00
2023-02-24T13:28:33.579Z,14.13
2023-02-24T13:29:49.375Z,14.65
2023-02-24T13:31:18.847Z,14.15
2023-02-24T13:32:29.631Z,13.70
2023-02-24T13:33:41.476Z,15.63
2023-02-24T13:34:45.776Z,16.62
2023-02-24T13:35:52.851Z,15.55
2023-02-24T13:36:55.932Z,15.88
2023-02-24T13:38:31.380Z,14.30
2023-02-24T13:39:37.623Z,15.90
2023-02-24T13:40:41.241Z,15.00
2023-02-24T13:41:44.300Z,15.68
2023-02-24T13:42:59.732Z,14.63
2023-02-24T13:44:25.805Z,13.32
2023-02-24T13:45:51.684Z,12.60
2023-02-24T13:47:22.672Z,12.50
2023-02-24T13:48:57.198Z,12.27
2023-02-24T13:50:20.799Z,12.50
2023-02-24T13:51:24.158Z,11.88
2023-02-24T13:52:44.708Z,12.05
2023-02-24T13:53:57.439Z,12.10
2023-02-24T13:55:15.145Z,11.80
2023-02-24T13:56:44.986Z,11.55
2023-02-24T13:57:58.067Z,11.55
2023-02-24T13:59:19.066Z,12.48
2023-02-24T14:00:33.052Z,12.13
2023-02-24T14:01:51.528Z,11.80
2023-02-24T14:02:55.467Z,10.88
2023-02-24T14:04:16.193Z,11.82
2023-02-24T14:05:27.113Z,11.12
2023-02-24T14:06:30.464Z,11.27
2023-02-24T14:07:37.674Z,12.45
2023-02-24T14:08:43.402Z,12.15
2023-02-24T14:09:51.696Z,12.15
2023-02-24T14:11:00.743Z,12.25
2023-02-24T14:12:19.835Z,12.23
2023-02-24T14:13:34.384Z,11.75
2023-02-24T14:14:37.898Z,12.50
2023-02-24T14:15:44.225Z,11.70
2023-02-24T14:16:51.828Z,12.20
2023-02-24T14:18:03.202Z,12.02
2023-02-24T14:19:14.703Z,11.95
2023-02-24T14:20:22.250Z,12.45
2023-02-24T14:21:28.336Z,11.88
2023-02-24T14:22:31.384Z,12.37
2023-02-24T14:23:35.768Z,12.25
2023-02-24T14:24:38.842Z,11.73
2023-02-24T14:25:42.072Z,11.82
2023-02-24T14:26:54.547Z,12.27
2023-02-24T14:27:58.338Z,12.07
2023-02-24T14:29:02.671Z,12.55
2023-02-24T14:30:08.291Z,13.35
2023-02-24T14:31:15.755Z,12.98
2023-02-24T14:32:27.318Z,12.57
2023-02-24T14:33:37.808Z,13.32
2023-02-24T14:34:41.212Z,13.23
2023-02-24T14:35:47.247Z,13.05
2023-02-24T14:36:54.501Z,11.93
2023-02-24T14:37:57.963Z,12.10
2023-02-24T14:39:23.098Z,12.50
2023-02-24T14:40:26.498Z,12.50
2023-02-24T14:41:29.952Z,12.45
2023-02-24T14:42:33.235Z,13.00
2023-02-24T14:43:42.325Z,12.05
2023-02-24T14:44:51.887Z,12.27
2023-02-24T14:45:58.141Z,12.35
2023-02-24T14:47:08.240Z,12.82
2023-02-24T14:48:26.400Z,12.30
2023-02-24T14:49:35.025Z,13.32
2023-02-24T14:50:38.414Z,12.80
2023-02-24T14:51:44.970Z,12.95
2023-02-24T14:53:01.284Z,13.13
2023-02-24T14:54:12.180Z,12.20
2023-02-24T14:55:24.439Z,12.15
2023-02-24T14:56:33.576Z,14.15
2023-02-24T14:57:57.182Z,12.88
2023-02-24T14:59:16.463Z,13.38
2023-02-24T15:00:24.726Z,13.30
2023-02-24T15:01:40.298Z,12.75
2023-02-24T15:02:48.375Z,12.82
2023-02-24T15:03:58.835Z,12.43
2023-02-24T15:05:02.159Z,12.30
2023-02-24T15:06:12.261Z,13.90
2023-02-24T15:07:19.555Z,12.57
2023-02-24T15:08:43.198Z,12.18
2023-02-24T15:09:48.631Z,13.70
2023-02-24T15:10:51.877Z,13.48
2023-02-24T15:11:56.564Z,13.20
2023-02-24T15:13:13.773Z,12.52
2023-02-24T15:14:26.409Z,13.57
2023-02-24T15:15:35.358Z,13.62
2023-02-24T15:16:47.450Z,13.85
2023-02-24T15:18:00.682Z,13.23
2023-02-24T15:19:05.040Z,13.15
2023-02-24T15:20:32.019Z,13.05
2023-02-24T15:21:41.072Z,13.55
2023-02-24T15:22:50.464Z,13.55
2023-02-24T15:24:04.461Z,13.18
2023-02-24T15:25:37.110Z,13.00
2023-02-24T15:26:56.098Z,14.50
2023-02-24T15:28:04.391Z,13.30
2023-02-24T15:29:20.354Z,12.60
2023-02-24T15:30:28.278Z,12.90
2023-02-24T15:31:31.732Z,14.25
2023-02-24T15:32:38.298Z,13.98